Time;durP1;ratioP1;P1;durP2;ratioP2;P2;SDS_P1;SDS_P2;PMS_P1;PMS_P2;Temp;Humidity;BMP_temperature;BMP_pressure;BME280_temperature;BME280_humidity;BME280_pressure;Samples;Min_cycle;Max_cycle;Signal;HPM_P1;HPM_P2
2023/01/28 00:01:07;;;;;;;;;;;18.90;41.50;;;;;;5078283;28;19924;-61
2023/01/28 00:03:34;;;;;;;;;;;18.90;41.40;;;;;;5092961;28;19928;-62
2023/01/28 00:06:03;;;;;;;;;;;18.90;41.50;;;;;;5108628;28;19981;-62
2023/01/28 00:08:30;;;;;;;;;;;18.90;41.40;;;;;;5110676;28;19969;-62
2023/01/28 00:10:58;;;;;;;;;;;18.90;41.40;;;;;;5088739;28;19925;-61
2023/01/28 00:13:25;;;;;;;;;;;18.90;41.40;;;;;;5095146;28;19985;-69
2023/01/28 00:15:54;;;;;;;;;;;18.90;41.40;;;;;;5104116;28;20301;-67
2023/01/28 00:18:24;;;;;;;;;;;18.90;41.40;;;;;;5091381;28;19994;-61
2023/01/28 00:20:57;;;;;;;;;;;18.90;41.40;;;;;;5097199;28;19920;-68
2023/01/28 00:23:24;;;;;;;;;;;18.90;41.30;;;;;;5083038;28;20019;-70
2023/01/28 00:25:51;;;;;;;;;;;18.80;41.30;;;;;;5091462;28;19978;-65
2023/01/28 00:28:18;;;;;;;;;;;18.90;41.30;;;;;;5090425;28;20273;-68
2023/01/28 00:30:44;;;;;;;;;;;18.90;41.30;;;;;;5081859;28;19927;-69
2023/01/28 00:33:12;;;;;;;;;;;18.90;41.30;;;;;;5101222;28;19946;-60
2023/01/28 00:35:40;;;;;;;;;;;18.90;41.30;;;;;;5097443;28;19932;-64
2023/01/28 00:38:07;;;;;;;;;;;18.80;41.10;;;;;;5091300;28;19931;-65
2023/01/28 00:40:34;;;;;;;;;;;18.90;41.20;;;;;;5088934;28;19920;-72
2023/01/28 00:43:01;;;;;;;;;;;18.80;41.10;;;;;;5088067;28;19954;-62
2023/01/28 00:45:28;;;;;;;;;;;18.80;41.10;;;;;;5076140;28;19932;-62
2023/01/28 00:47:55;;;;;;;;;;;18.90;41.20;;;;;;5090035;28;20380;-61
2023/01/28 00:50:21;;;;;;;;;;;18.90;41.70;;;;;;5090869;28;20369;-62
2023/01/28 00:52:49;;;;;;;;;;;18.90;41.20;;;;;;5081060;28;19948;-63
2023/01/28 00:55:20;;;;;;;;;;;18.80;41.10;;;;;;5106641;28;19924;-61
2023/01/28 00:57:47;;;;;;;;;;;18.80;41.00;;;;;;5092510;28;19924;-63
2023/01/28 01:00:15;;;;;;;;;;;18.80;41.00;;;;;;5089567;28;19927;-64
2023/01/28 01:02:42;;;;;;;;;;;18.80;41.00;;;;;;5071910;28;20369;-65
2023/01/28 01:05:09;;;;;;;;;;;18.80;40.90;;;;;;5080027;28;19919;-66
2023/01/28 01:07:41;;;;;;;;;;;18.80;40.90;;;;;;5073026;28;19924;-61
2023/01/28 01:10:10;;;;;;;;;;;18.80;40.90;;;;;;5088057;28;20353;-68
2023/01/28 01:12:37;;;;;;;;;;;18.80;40.90;;;;;;5091314;28;19927;-62
2023/01/28 01:15:07;;;;;;;;;;;18.80;40.90;;;;;;5072687;28;19927;-71
2023/01/28 01:17:36;;;;;;;;;;;18.80;40.90;;;;;;5071893;28;19970;-68
2023/01/28 01:20:03;;;;;;;;;;;18.80;40.90;;;;;;5091752;28;20501;-61
2023/01/28 01:22:32;;;;;;;;;;;18.80;40.90;;;;;;5090148;28;19962;-61
2023/01/28 01:24:59;;;;;;;;;;;18.80;40.90;;;;;;5089355;28;19932;-63
2023/01/28 01:27:27;;;;;;;;;;;18.80;40.80;;;;;;5089072;28;19963;-64
2023/01/28 01:29:54;;;;;;;;;;;18.80;40.80;;;;;;5072196;28;19928;-62
2023/01/28 01:32:21;;;;;;;;;;;18.80;40.80;;;;;;5071902;28;19931;-66
2023/01/28 01:34:48;;;;;;;;;;;18.80;40.80;;;;;;5071464;28;19955;-64
2023/01/28 01:37:14;;;;;;;;;;;18.80;40.80;;;;;;5072751;28;19920;-64
2023/01/28 01:39:41;;;;;;;;;;;18.80;40.70;;;;;;5088451;28;19936;-68
2023/01/28 01:42:10;;;;;;;;;;;18.80;40.70;;;;;;5089501;28;19939;-64
2023/01/28 01:44:54;;;;;;;;;;;18.80;40.70;;;;;;5087565;28;19977;-62
2023/01/28 01:47:23;;;;;;;;;;;18.80;40.70;;;;;;5077877;28;19920;-60
2023/01/28 01:49:49;;;;;;;;;;;18.80;40.70;;;;;;5093103;28;19920;-61
2023/01/28 01:52:17;;;;;;;;;;;18.80;40.70;;;;;;5077067;28;19920;-60
2023/01/28 01:54:45;;;;;;;;;;;18.80;40.70;;;;;;5080425;28;19928;-61
2023/01/28 01:57:13;;;;;;;;;;;18.80;40.70;;;;;;5085282;28;19924;-61
2023/01/28 01:59:39;;;;;;;;;;;18.80;40.60;;;;;;5073115;28;20080;-61
2023/01/28 02:02:06;;;;;;;;;;;18.80;40.60;;;;;;5080319;28;19993;-70
2023/01/28 02:04:35;;;;;;;;;;;18.80;40.60;;;;;;5082430;28;19932;-65
2023/01/28 02:07:02;;;;;;;;;;;18.80;40.60;;;;;;5091575;28;19985;-62
2023/01/28 02:09:29;;;;;;;;;;;18.80;40.60;;;;;;5086867;28;19959;-68
2023/01/28 02:11:56;;;;;;;;;;;18.80;40.60;;;;;;5085743;28;20024;-65
2023/01/28 02:14:25;;;;;;;;;;;18.70;41.10;;;;;;5079649;28;19931;-67
2023/01/28 02:16:52;;;;;;;;;;;18.80;40.50;;;;;;5088755;28;19919;-63
2023/01/28 02:19:18;;;;;;;;;;;18.80;40.50;;;;;;5085534;28;19966;-61
2023/01/28 02:22:03;;;;;;;;;;;18.80;40.50;;;;;;5083161;28;20269;-61
2023/01/28 02:24:38;;;;;;;;;;;18.80;40.50;;;;;;5087165;28;19963;-63
2023/01/28 02:27:16;;;;;;;;;;;18.80;40.50;;;;;;5081627;28;19924;-63
2023/01/28 02:29:44;;;;;;;;;;;18.80;40.50;;;;;;5092736;28;19942;-64
2023/01/28 02:32:13;;;;;;;;;;;18.80;40.40;;;;;;5100607;28;19973;-60
2023/01/28 02:34:40;;;;;;;;;;;18.80;40.40;;;;;;5094647;28;19969;-68
2023/01/28 02:37:09;;;;;;;;;;;18.80;40.50;;;;;;5087886;28;19923;-66
2023/01/28 02:39:37;;;;;;;;;;;18.80;40.50;;;;;;5093019;28;19920;-62
2023/01/28 02:42:04;;;;;;;;;;;18.80;40.40;;;;;;5085442;28;19970;-61
2023/01/28 02:44:31;;;;;;;;;;;18.80;40.40;;;;;;5093955;28;19972;-63
2023/01/28 02:49:45;;;;;;;;;;;18.80;40.40;;;;;;5100870;28;19924;-64
2023/01/28 02:52:18;;;;;;;;;;;18.80;40.40;;;;;;5074860;28;19932;-66
2023/01/28 02:54:45;;;;;;;;;;;18.80;40.40;;;;;;5099092;28;19973;-66
2023/01/28 02:57:18;;;;;;;;;;;18.80;40.40;;;;;;5099266;28;19959;-63
2023/01/28 02:59:48;;;;;;;;;;;18.70;40.30;;;;;;5099993;28;19978;-65
2023/01/28 03:02:20;;;;;;;;;;;18.80;40.30;;;;;;5082220;28;19973;-64
2023/01/28 03:04:47;;;;;;;;;;;18.80;40.30;;;;;;5087651;28;19979;-65
2023/01/28 03:07:15;;;;;;;;;;;18.80;40.30;;;;;;5088666;28;20319;-64
2023/01/28 03:09:42;;;;;;;;;;;18.80;40.30;;;;;;5091859;28;19931;-71
2023/01/28 03:36:54;;;;;;;;;;;18.70;40.10;;;;;;5089432;28;20015;-68
2023/01/28 03:39:22;;;;;;;;;;;18.70;40.10;;;;;;5090175;28;20030;-63
2023/01/28 03:41:58;;;;;;;;;;;18.70;40.10;;;;;;5093440;28;19924;-61
2023/01/28 03:47:10;;;;;;;;;;;18.70;40.10;;;;;;5107019;28;19920;-62
2023/01/28 03:49:39;;;;;;;;;;;18.70;40.10;;;;;;5105976;28;20000;-69
2023/01/28 03:52:06;;;;;;;;;;;18.70;40.10;;;;;;5089177;28;19996;-61
2023/01/28 03:54:33;;;;;;;;;;;18.70;40.10;;;;;;5088785;28;19920;-67
2023/01/28 03:56:59;;;;;;;;;;;18.70;40.10;;;;;;5092197;28;19959;-62
2023/01/28 03:59:26;;;;;;;;;;;18.70;40.10;;;;;;5080806;28;19920;-61
2023/01/28 04:01:54;;;;;;;;;;;18.70;40.10;;;;;;5080513;28;19920;-62
2023/01/28 04:04:23;;;;;;;;;;;18.70;40.00;;;;;;5082768;28;19924;-66
2023/01/28 04:06:52;;;;;;;;;;;18.70;40.10;;;;;;5085698;28;19940;-61
2023/01/28 04:09:18;;;;;;;;;;;18.70;40.00;;;;;;5090016;28;19963;-63
2023/01/28 04:11:45;;;;;;;;;;;18.70;40.00;;;;;;5095594;28;19931;-62
2023/01/28 04:14:12;;;;;;;;;;;18.70;40.00;;;;;;5099565;28;19920;-64
2023/01/28 04:16:39;;;;;;;;;;;18.70;40.00;;;;;;5098069;28;19942;-63
2023/01/28 04:19:06;;;;;;;;;;;18.70;40.00;;;;;;5074543;28;19923;-61
2023/01/28 04:21:32;;;;;;;;;;;18.70;40.00;;;;;;5072606;28;20419;-66
2023/01/28 04:24:01;;;;;;;;;;;18.70;40.00;;;;;;5081383;28;20264;-61
2023/01/28 04:26:28;;;;;;;;;;;18.70;40.00;;;;;;5088952;28;20019;-64
2023/01/28 04:28:54;;;;;;;;;;;18.70;40.00;;;;;;5074676;28;19920;-70
2023/01/28 04:31:22;;;;;;;;;;;18.70;40.00;;;;;;5092372;28;19920;-62
2023/01/28 04:33:49;;;;;;;;;;;18.70;40.00;;;;;;5078983;28;19973;-61
2023/01/28 04:36:15;;;;;;;;;;;18.70;40.00;;;;;;5084317;28;20011;-62
2023/01/28 04:38:42;;;;;;;;;;;18.70;40.00;;;;;;5089685;28;19920;-66
2023/01/28 04:41:11;;;;;;;;;;;18.70;40.00;;;;;;5093116;28;20008;-64
2023/01/28 04:43:37;;;;;;;;;;;18.70;40.00;;;;;;5092971;28;19974;-66
2023/01/28 04:46:04;;;;;;;;;;;18.70;40.00;;;;;;5101764;28;19963;-61
2023/01/28 04:48:31;;;;;;;;;;;18.70;39.90;;;;;;5093371;28;20007;-62
2023/01/28 04:50:58;;;;;;;;;;;18.70;40.00;;;;;;5087880;28;19946;-61
2023/01/28 04:53:25;;;;;;;;;;;18.70;39.90;;;;;;5076947;28;19939;-62
2023/01/28 04:55:51;;;;;;;;;;;18.70;39.90;;;;;;5086260;28;20040;-65
2023/01/28 04:58:19;;;;;;;;;;;18.70;39.90;;;;;;5085299;28;19966;-61
2023/01/28 05:00:46;;;;;;;;;;;18.70;39.90;;;;;;5096733;28;19924;-64
2023/01/28 05:03:13;;;;;;;;;;;18.70;39.90;;;;;;5079611;28;19920;-62
2023/01/28 05:05:40;;;;;;;;;;;18.70;39.90;;;;;;5082916;28;19920;-60
2023/01/28 05:08:06;;;;;;;;;;;18.70;39.90;;;;;;5085278;28;19924;-62
2023/01/28 05:10:33;;;;;;;;;;;18.70;39.80;;;;;;5078979;28;19955;-63
2023/01/28 05:13:00;;;;;;;;;;;18.70;39.80;;;;;;5087543;22;19929;-67
2023/01/28 05:15:28;;;;;;;;;;;18.70;39.80;;;;;;5045011;28;19986;-67
2023/01/28 05:17:56;;;;;;;;;;;18.70;39.80;;;;;;5019112;28;19927;-60
2023/01/28 05:20:22;;;;;;;;;;;18.70;39.80;;;;;;5039653;28;19921;-60
2023/01/28 05:22:49;;;;;;;;;;;18.70;39.80;;;;;;5019499;28;19925;-61
2023/01/28 05:25:16;;;;;;;;;;;18.70;39.80;;;;;;5028286;28;20432;-61
2023/01/28 05:27:43;;;;;;;;;;;18.70;39.80;;;;;;5058234;28;19975;-61
2023/01/28 05:30:10;;;;;;;;;;;18.70;39.80;;;;;;5045048;28;19924;-62
2023/01/28 05:32:39;;;;;;;;;;;18.70;39.80;;;;;;5030779;28;19921;-60
2023/01/28 05:35:06;;;;;;;;;;;18.70;39.70;;;;;;5029241;28;20363;-65
2023/01/28 05:37:32;;;;;;;;;;;18.70;39.80;;;;;;5025743;28;19928;-68
2023/01/28 05:39:59;;;;;;;;;;;18.60;39.60;;;;;;5047619;28;19920;-61
2023/01/28 05:42:26;;;;;;;;;;;18.70;39.70;;;;;;5033704;28;19956;-61
2023/01/28 05:44:53;;;;;;;;;;;18.70;39.70;;;;;;5039162;28;19943;-64
2023/01/28 05:47:20;;;;;;;;;;;18.70;39.70;;;;;;5046386;28;19927;-60
2023/01/28 05:49:48;;;;;;;;;;;18.60;40.20;;;;;;5044483;28;19925;-61
2023/01/28 05:52:15;;;;;;;;;;;18.60;39.60;;;;;;5023329;28;19933;-61
2023/01/28 05:54:41;;;;;;;;;;;18.60;39.60;;;;;;5049477;28;19975;-71
2023/01/28 05:57:08;;;;;;;;;;;18.60;39.50;;;;;;5054771;28;19920;-61
2023/01/28 05:59:35;;;;;;;;;;;18.60;39.50;;;;;;5023486;28;19924;-60
2023/01/28 06:02:02;;;;;;;;;;;18.60;39.50;;;;;;5046359;28;19978;-61
2023/01/28 06:04:28;;;;;;;;;;;18.70;39.60;;;;;;5038284;28;19971;-61
2023/01/28 06:06:56;;;;;;;;;;;18.60;39.60;;;;;;5048918;28;19920;-60
2023/01/28 06:09:23;;;;;;;;;;;18.60;39.60;;;;;;5040194;28;19928;-68
2023/01/28 06:11:50;;;;;;;;;;;18.60;39.50;;;;;;5027430;28;19925;-60
2023/01/28 06:14:17;;;;;;;;;;;18.60;39.50;;;;;;5036518;28;19932;-60
2023/01/28 06:16:43;;;;;;;;;;;18.60;39.50;;;;;;5032367;28;19955;-68
2023/01/28 06:19:10;;;;;;;;;;;18.60;39.50;;;;;;5019365;28;19924;-60
2023/01/28 06:21:37;;;;;;;;;;;18.60;39.50;;;;;;5045851;28;20007;-62
2023/01/28 06:24:05;;;;;;;;;;;18.60;39.50;;;;;;5008369;28;19949;-68
2023/01/28 06:26:32;;;;;;;;;;;18.60;39.50;;;;;;5043850;28;19990;-64
2023/01/28 06:28:59;;;;;;;;;;;18.60;39.50;;;;;;5036020;28;19921;-66
2023/01/28 06:31:25;;;;;;;;;;;18.60;39.40;;;;;;5031494;28;19968;-63
2023/01/28 06:33:52;;;;;;;;;;;18.60;39.40;;;;;;5034337;28;19966;-64
2023/01/28 06:36:19;;;;;;;;;;;18.60;39.40;;;;;;5046426;28;19921;-68
2023/01/28 06:38:46;;;;;;;;;;;18.60;39.40;;;;;;5029836;28;19920;-62
2023/01/28 06:41:14;;;;;;;;;;;18.60;39.40;;;;;;5014191;28;19921;-62
2023/01/28 06:43:41;;;;;;;;;;;18.60;39.40;;;;;;5012721;28;20322;-65
2023/01/28 06:46:08;;;;;;;;;;;18.60;39.40;;;;;;5043060;28;19932;-63
2023/01/28 06:48:35;;;;;;;;;;;18.60;39.40;;;;;;5027548;28;20421;-65
2023/01/28 06:51:02;;;;;;;;;;;18.60;39.30;;;;;;5027990;28;19928;-60
2023/01/28 06:53:28;;;;;;;;;;;18.60;39.30;;;;;;5029209;28;19948;-67
2023/01/28 06:55:55;;;;;;;;;;;18.60;39.30;;;;;;5031048;28;19971;-62
2023/01/28 06:58:23;;;;;;;;;;;18.60;39.30;;;;;;5034991;28;20413;-64
2023/01/28 07:00:50;;;;;;;;;;;18.60;39.30;;;;;;5029927;28;19983;-65
2023/01/28 07:03:17;;;;;;;;;;;18.60;39.30;;;;;;5017738;28;19982;-70
2023/01/28 07:05:43;;;;;;;;;;;18.60;39.30;;;;;;5043855;28;19924;-61
2023/01/28 07:08:10;;;;;;;;;;;18.60;39.30;;;;;;5054538;28;19951;-61
2023/01/28 07:10:37;;;;;;;;;;;18.60;39.30;;;;;;5035854;28;19944;-61
2023/01/28 07:13:04;;;;;;;;;;;18.60;39.30;;;;;;5044166;28;19932;-67
2023/01/28 07:15:32;;;;;;;;;;;18.60;39.30;;;;;;5026208;28;20337;-63
2023/01/28 07:17:59;;;;;;;;;;;18.60;39.30;;;;;;5024645;28;19921;-68
2023/01/28 07:20:26;;;;;;;;;;;18.60;39.30;;;;;;5042278;28;20375;-70
2023/01/28 07:22:52;;;;;;;;;;;18.60;39.30;;;;;;5024480;28;19932;-59
2023/01/28 07:25:19;;;;;;;;;;;18.60;39.30;;;;;;5025526;28;19937;-62
2023/01/28 07:27:47;;;;;;;;;;;18.60;39.30;;;;;;5025713;28;19925;-64
2023/01/28 07:30:14;;;;;;;;;;;18.60;39.30;;;;;;5022794;28;19921;-63
2023/01/28 07:32:42;;;;;;;;;;;18.60;39.30;;;;;;5022262;28;19933;-61
2023/01/28 07:35:09;;;;;;;;;;;18.60;39.30;;;;;;5025430;28;19975;-61
2023/01/28 07:37:36;;;;;;;;;;;18.60;39.30;;;;;;5040883;28;20402;-62
2023/01/28 07:40:03;;;;;;;;;;;18.60;39.20;;;;;;5024287;28;19924;-63
2023/01/28 07:42:29;;;;;;;;;;;18.60;39.20;;;;;;5035470;28;20144;-63
2023/01/28 07:44:56;;;;;;;;;;;18.60;39.20;;;;;;5026750;28;19921;-63
2023/01/28 07:47:23;;;;;;;;;;;18.60;39.20;;;;;;5026407;28;19944;-62
2023/01/28 07:49:51;;;;;;;;;;;18.60;39.20;;;;;;5021299;28;19928;-65
2023/01/28 07:52:18;;;;;;;;;;;18.60;39.20;;;;;;5024573;28;19920;-63
2023/01/28 07:54:45;;;;;;;;;;;18.60;39.20;;;;;;5040825;28;19921;-62
2023/01/28 07:57:11;;;;;;;;;;;18.60;39.20;;;;;;5023238;28;19970;-62
2023/01/28 07:59:38;;;;;;;;;;;18.60;39.20;;;;;;5042042;28;19925;-64
2023/01/28 08:02:05;;;;;;;;;;;18.60;39.20;;;;;;5042123;28;19929;-67
2023/01/28 08:04:31;;;;;;;;;;;18.60;39.20;;;;;;5039335;28;19931;-61
2023/01/28 08:06:59;;;;;;;;;;;18.60;39.20;;;;;;5025552;28;19967;-60
2023/01/28 08:09:26;;;;;;;;;;;18.60;39.20;;;;;;5044699;28;19921;-61
2023/01/28 08:11:53;;;;;;;;;;;18.60;39.20;;;;;;5042166;28;19928;-64
2023/01/28 08:14:20;;;;;;;;;;;18.60;39.20;;;;;;5024321;28;19921;-70
2023/01/28 08:16:47;;;;;;;;;;;18.60;39.20;;;;;;5040223;28;19921;-69
2023/01/28 08:19:14;;;;;;;;;;;18.60;39.20;;;;;;5025684;28;20379;-61
2023/01/28 08:21:41;;;;;;;;;;;18.60;39.20;;;;;;5021658;28;19975;-66
2023/01/28 08:24:10;;;;;;;;;;;18.50;39.00;;;;;;5041086;28;19990;-61
2023/01/28 08:26:36;;;;;;;;;;;18.60;39.20;;;;;;5041840;28;19921;-61
2023/01/28 08:29:04;;;;;;;;;;;18.60;39.10;;;;;;5023372;28;19920;-66
2023/01/28 08:31:30;;;;;;;;;;;18.60;39.40;;;;;;5041128;28;19921;-66
2023/01/28 08:33:57;;;;;;;;;;;18.60;39.10;;;;;;5022134;28;19925;-61
2023/01/28 08:36:24;;;;;;;;;;;18.60;39.10;;;;;;5040648;28;19925;-69
2023/01/28 08:38:52;;;;;;;;;;;18.60;39.10;;;;;;5043326;28;19944;-64
2023/01/28 08:41:21;;;;;;;;;;;18.60;39.10;;;;;;5022455;28;19921;-66
2023/01/28 08:43:48;;;;;;;;;;;18.60;39.10;;;;;;5021586;28;19921;-68
2023/01/28 08:46:15;;;;;;;;;;;18.60;39.10;;;;;;5023172;28;19921;-62
2023/01/28 08:48:41;;;;;;;;;;;18.60;39.10;;;;;;5024556;28;20017;-61
2023/01/28 08:51:08;;;;;;;;;;;18.60;39.10;;;;;;5022274;28;20030;-64
2023/01/28 08:53:35;;;;;;;;;;;18.60;39.10;;;;;;5021045;28;19925;-66
2023/01/28 08:56:01;;;;;;;;;;;18.60;39.10;;;;;;5022339;28;19929;-61
2023/01/28 08:58:30;;;;;;;;;;;18.60;39.10;;;;;;5023030;28;20360;-66
2023/01/28 09:00:56;;;;;;;;;;;18.60;39.10;;;;;;5039505;28;19986;-63
2023/01/28 09:03:23;;;;;;;;;;;18.50;39.00;;;;;;5026304;28;20631;-64
2023/01/28 09:05:50;;;;;;;;;;;18.60;39.10;;;;;;5040269;28;19925;-61
2023/01/28 09:08:17;;;;;;;;;;;18.60;39.10;;;;;;5043872;28;19925;-62
2023/01/28 09:10:44;;;;;;;;;;;18.60;39.10;;;;;;5024978;28;19943;-71
2023/01/28 09:13:11;;;;;;;;;;;18.60;39.10;;;;;;5038043;28;19956;-61
2023/01/28 09:15:41;;;;;;;;;;;18.60;39.10;;;;;;5037627;28;19979;-61
2023/01/28 09:18:07;;;;;;;;;;;18.50;39.00;;;;;;5025343;28;19921;-65
2023/01/28 09:20:34;;;;;;;;;;;18.60;39.10;;;;;;5025792;28;19921;-61
2023/01/28 09:23:01;;;;;;;;;;;18.60;39.10;;;;;;5017459;28;20293;-62
2023/01/28 09:25:28;;;;;;;;;;;18.60;39.10;;;;;;5058686;28;19921;-67
2023/01/28 09:27:54;;;;;;;;;;;18.60;39.10;;;;;;5053094;28;19975;-61
2023/01/28 09:30:21;;;;;;;;;;;18.60;39.10;;;;;;5021922;28;19921;-66
2023/01/28 09:32:53;;;;;;;;;;;18.60;39.10;;;;;;5026973;28;20024;-63
2023/01/28 09:35:20;;;;;;;;;;;18.60;39.20;;;;;;5041895;28;19932;-62
2023/01/28 09:37:47;;;;;;;;;;;18.50;39.00;;;;;;5029897;28;20313;-65
2023/01/28 09:40:15;;;;;;;;;;;18.60;39.10;;;;;;5017786;28;19987;-65
2023/01/28 09:42:48;;;;;;;;;;;18.60;39.20;;;;;;5026358;28;19986;-65
2023/01/28 09:45:16;;;;;;;;;;;18.60;39.10;;;;;;5019268;28;19978;-70
2023/01/28 09:47:43;;;;;;;;;;;18.60;39.20;;;;;;5027650;28;19921;-64
2023/01/28 09:50:15;;;;;;;;;;;18.60;39.20;;;;;;5018986;28;19921;-69
2023/01/28 09:52:42;;;;;;;;;;;18.60;39.20;;;;;;5029574;28;19947;-62
2023/01/28 09:55:12;;;;;;;;;;;18.60;39.20;;;;;;5044100;28;19932;-68
2023/01/28 09:57:40;;;;;;;;;;;18.60;39.20;;;;;;5018868;28;19976;-62
2023/01/28 10:00:12;;;;;;;;;;;18.60;39.20;;;;;;5019247;28;19925;-61
2023/01/28 10:02:42;;;;;;;;;;;18.60;39.40;;;;;;5029350;28;20374;-73
2023/01/28 10:05:15;;;;;;;;;;;18.60;39.30;;;;;;5022748;28;20053;-64
2023/01/28 10:07:42;;;;;;;;;;;18.60;39.30;;;;;;5036948;28;19925;-65
2023/01/28 10:10:10;;;;;;;;;;;18.60;39.30;;;;;;5042648;28;19964;-61
2023/01/28 10:12:39;;;;;;;;;;;18.60;39.30;;;;;;5039772;28;19925;-60
2023/01/28 10:15:13;;;;;;;;;;;18.60;39.30;;;;;;5055440;28;19970;-65
2023/01/28 10:17:41;;;;;;;;;;;18.60;39.30;;;;;;5028743;28;19928;-65
2023/01/28 10:20:08;;;;;;;;;;;18.60;39.30;;;;;;5026431;28;19941;-63
2023/01/28 10:22:37;;;;;;;;;;;18.60;39.40;;;;;;5035515;28;19963;-60
2023/01/28 10:25:06;;;;;;;;;;;18.60;39.40;;;;;;5032603;28;19929;-64
2023/01/28 10:27:33;;;;;;;;;;;18.60;39.40;;;;;;5023530;28;19996;-63
2023/01/28 10:30:00;;;;;;;;;;;18.60;39.40;;;;;;5048130;28;19928;-63
2023/01/28 10:32:28;;;;;;;;;;;18.60;39.50;;;;;;5031343;28;19983;-61
2023/01/28 10:34:55;;;;;;;;;;;18.60;39.40;;;;;;5031073;28;20359;-67
2023/01/28 10:37:22;;;;;;;;;;;18.60;39.50;;;;;;5028180;28;19948;-61
2023/01/28 10:39:51;;;;;;;;;;;18.60;39.50;;;;;;5024011;28;19964;-69
2023/01/28 10:42:21;;;;;;;;;;;18.60;39.50;;;;;;5027848;28;19927;-62
2023/01/28 10:44:48;;;;;;;;;;;18.60;39.50;;;;;;5040596;28;19924;-64
2023/01/28 10:47:15;;;;;;;;;;;18.60;39.60;;;;;;5045533;28;19924;-64
2023/01/28 10:49:44;;;;;;;;;;;18.60;39.60;;;;;;5021388;28;19921;-65
2023/01/28 10:52:11;;;;;;;;;;;18.70;39.70;;;;;;5026467;28;19925;-63
2023/01/28 10:54:38;;;;;;;;;;;18.70;39.70;;;;;;5023877;28;19925;-67
2023/01/28 10:57:09;;;;;;;;;;;18.70;39.70;;;;;;5026516;28;19936;-61
2023/01/28 10:59:40;;;;;;;;;;;18.70;39.70;;;;;;5030146;28;19925;-61
2023/01/28 11:02:20;;;;;;;;;;;18.70;39.70;;;;;;5032233;28;19925;-60
2023/01/28 11:04:46;;;;;;;;;;;18.60;39.60;;;;;;5030076;28;20020;-60
2023/01/28 11:07:16;;;;;;;;;;;18.70;39.80;;;;;;5029904;28;19933;-60
2023/01/28 11:09:45;;;;;;;;;;;18.70;39.80;;;;;;5024550;28;19921;-63
2023/01/28 11:12:13;;;;;;;;;;;18.70;39.80;;;;;;5032571;28;19932;-66
2023/01/28 11:14:43;;;;;;;;;;;18.70;39.80;;;;;;5019453;28;20296;-61
2023/01/28 11:17:12;;;;;;;;;;;18.70;39.80;;;;;;5041422;28;19925;-61
2023/01/28 11:19:39;;;;;;;;;;;18.70;39.80;;;;;;5040809;28;19924;-65
2023/01/28 11:22:06;;;;;;;;;;;18.70;39.90;;;;;;5028479;28;19920;-67
2023/01/28 11:24:33;;;;;;;;;;;18.70;39.90;;;;;;5026951;28;19925;-66
2023/01/28 11:27:01;;;;;;;;;;;18.70;39.90;;;;;;5031438;28;19931;-62
2023/01/28 11:29:41;;;;;;;;;;;18.70;39.90;;;;;;5026924;28;19925;-60
2023/01/28 11:32:16;;;;;;;;;;;18.70;39.90;;;;;;5008934;28;19920;-63
2023/01/28 11:34:48;;;;;;;;;;;18.70;39.90;;;;;;5034727;28;19925;-62
2023/01/28 11:37:17;;;;;;;;;;;18.70;39.90;;;;;;5040447;28;19925;-64
2023/01/28 11:39:44;;;;;;;;;;;18.70;39.90;;;;;;5023081;28;19921;-61
2023/01/28 11:42:11;;;;;;;;;;;18.70;39.90;;;;;;5027458;28;20279;-61
2023/01/28 11:44:40;;;;;;;;;;;18.70;39.90;;;;;;5048681;28;19947;-65
2023/01/28 11:47:23;;;;;;;;;;;18.70;39.90;;;;;;5031202;28;19921;-64
2023/01/28 11:49:57;;;;;;;;;;;18.70;40.00;;;;;;5049863;28;19988;-64
2023/01/28 11:52:26;;;;;;;;;;;18.70;39.90;;;;;;5021723;28;19921;-63
2023/01/28 11:54:55;;;;;;;;;;;18.70;40.00;;;;;;5030432;28;19924;-65
2023/01/28 11:57:24;;;;;;;;;;;18.70;40.00;;;;;;5028684;28;19924;-65
2023/01/28 12:00:02;;;;;;;;;;;18.70;40.00;;;;;;5020520;28;19929;-70
2023/01/28 12:02:37;;;;;;;;;;;18.70;40.00;;;;;;5042438;28;19955;-60
2023/01/28 12:05:08;;;;;;;;;;;18.80;40.10;;;;;;5031964;28;19982;-64
2023/01/28 12:07:37;;;;;;;;;;;18.80;40.10;;;;;;5043442;28;19947;-68
2023/01/28 12:10:06;;;;;;;;;;;18.80;40.10;;;;;;5036098;28;19955;-63
2023/01/28 12:12:51;;;;;;;;;;;18.80;40.10;;;;;;5042634;28;19921;-64
2023/01/28 12:15:26;;;;;;;;;;;18.70;40.00;;;;;;4986994;28;20282;-60
2023/01/28 12:18:00;;;;;;;;;;;18.80;40.10;;;;;;5050600;28;19921;-61
2023/01/28 12:20:30;;;;;;;;;;;18.80;40.10;;;;;;5030222;28;19991;-67
2023/01/28 12:23:03;;;;;;;;;;;18.80;40.10;;;;;;5026396;28;20012;-60
2023/01/28 12:25:39;;;;;;;;;;;18.80;40.20;;;;;;5048282;28;19921;-63
2023/01/28 12:28:08;;;;;;;;;;;18.80;40.20;;;;;;5032228;28;19921;-61
2023/01/28 12:30:40;;;;;;;;;;;18.70;40.10;;;;;;5049230;28;20413;-70
2023/01/28 12:33:28;;;;;;;;;;;18.80;40.20;;;;;;5047640;28;19929;-61
2023/01/28 12:36:01;;;;;;;;;;;18.70;40.10;;;;;;5047426;28;19925;-61
2023/01/28 12:38:31;;;;;;;;;;;18.80;40.20;;;;;;5022601;28;19966;-60
2023/01/28 12:40:59;;;;;;;;;;;18.80;40.20;;;;;;5029945;28;19966;-61
2023/01/28 12:43:38;;;;;;;;;;;18.80;40.20;;;;;;5043006;28;19931;-70
2023/01/28 12:46:09;;;;;;;;;;;18.70;40.10;;;;;;5031169;28;20136;-63
2023/01/28 12:48:36;;;;;;;;;;;18.80;40.20;;;;;;5031726;28;19932;-59
2023/01/28 12:51:03;;;;;;;;;;;18.80;40.20;;;;;;5026050;28;19929;-62
2023/01/28 12:53:31;;;;;;;;;;;18.80;40.20;;;;;;5048276;28;19959;-58
2023/01/28 12:55:58;;;;;;;;;;;18.80;40.20;;;;;;5021411;28;20326;-62
2023/01/28 12:58:31;;;;;;;;;;;18.80;40.30;;;;;;5048633;28;19971;-59
2023/01/28 13:00:59;;;;;;;;;;;18.80;40.20;;;;;;5047438;28;19955;-58
2023/01/28 13:03:28;;;;;;;;;;;18.70;40.20;;;;;;5029395;28;19967;-70
2023/01/28 13:05:55;;;;;;;;;;;18.80;40.30;;;;;;5049660;28;19963;-61
2023/01/28 13:08:23;;;;;;;;;;;18.80;40.30;;;;;;5048969;28;20176;-61
2023/01/28 13:10:49;;;;;;;;;;;18.80;40.30;;;;;;5049939;28;19960;-61
2023/01/28 13:13:17;;;;;;;;;;;18.80;40.30;;;;;;5047963;28;19920;-58
2023/01/28 13:15:44;;;;;;;;;;;18.80;40.30;;;;;;5028280;28;19932;-60
2023/01/28 13:18:26;;;;;;;;;;;18.80;40.90;;;;;;5030932;28;20047;-63
2023/01/28 13:20:54;;;;;;;;;;;18.80;40.30;;;;;;5043034;28;20402;-63
2023/01/28 13:23:22;;;;;;;;;;;18.80;40.30;;;;;;5048039;28;19920;-61
2023/01/28 13:25:49;;;;;;;;;;;18.80;40.30;;;;;;5027869;28;19928;-65
2023/01/28 13:28:26;;;;;;;;;;;18.80;40.30;;;;;;5029918;28;19974;-62
2023/01/28 13:31:00;;;;;;;;;;;18.80;40.30;;;;;;5048725;28;20037;-58
2023/01/28 13:33:27;;;;;;;;;;;18.80;40.30;;;;;;5029929;28;19924;-65
2023/01/28 13:35:56;;;;;;;;;;;18.80;40.30;;;;;;5030090;28;19932;-60
2023/01/28 13:38:23;;;;;;;;;;;18.80;40.30;;;;;;5028751;28;19928;-60
2023/01/28 13:40:53;;;;;;;;;;;18.80;40.30;;;;;;5046760;28;19927;-60
2023/01/28 13:43:25;;;;;;;;;;;18.80;40.40;;;;;;5030166;28;19920;-60
2023/01/28 13:45:55;;;;;;;;;;;18.80;40.40;;;;;;5028409;28;19940;-59
2023/01/28 13:48:22;;;;;;;;;;;18.80;40.40;;;;;;5048042;28;19967;-60
2023/01/28 13:50:49;;;;;;;;;;;18.80;40.40;;;;;;5045832;28;19948;-64
2023/01/28 13:53:19;;;;;;;;;;;18.80;40.40;;;;;;5047310;28;19925;-61
2023/01/28 13:55:49;;;;;;;;;;;18.80;40.40;;;;;;5028234;28;19932;-65
2023/01/28 13:58:31;;;;;;;;;;;18.80;40.40;;;;;;5047082;28;19986;-60
2023/01/28 14:01:03;;;;;;;;;;;18.80;40.40;;;;;;5010412;28;20316;-62
2023/01/28 14:03:57;;;;;;;;;;;18.80;40.40;;;;;;5034493;28;19970;-59
2023/01/28 14:06:42;;;;;;;;;;;18.80;40.40;;;;;;5045155;28;20344;-68
2023/01/28 14:09:24;;;;;;;;;;;18.80;40.40;;;;;;4982973;28;19925;-58
2023/01/28 14:12:06;;;;;;;;;;;18.80;40.40;;;;;;5033142;28;19987;-62
2023/01/28 14:14:39;;;;;;;;;;;18.80;40.40;;;;;;5033215;28;20019;-63
2023/01/28 14:17:07;;;;;;;;;;;18.80;40.40;;;;;;5051613;28;19929;-68
2023/01/28 14:19:34;;;;;;;;;;;18.80;40.40;;;;;;5034588;28;19994;-65
2023/01/28 14:22:06;;;;;;;;;;;18.80;40.40;;;;;;5024831;28;20380;-61
2023/01/28 14:24:32;;;;;;;;;;;18.80;40.40;;;;;;5024181;28;19925;-66
2023/01/28 14:27:01;;;;;;;;;;;18.80;40.40;;;;;;5046969;28;20379;-63
2023/01/28 14:29:33;;;;;;;;;;;18.80;40.50;;;;;;5040889;28;19925;-68
2023/01/28 14:32:04;;;;;;;;;;;18.80;40.40;;;;;;5040321;28;19925;-59
2023/01/28 14:34:31;;;;;;;;;;;18.80;40.40;;;;;;5038498;28;20311;-66
2023/01/28 14:36:58;;;;;;;;;;;18.80;40.50;;;;;;5023329;28;19941;-59
2023/01/28 14:39:26;;;;;;;;;;;18.80;41.00;;;;;;5023733;28;19929;-65
2023/01/28 14:41:53;;;;;;;;;;;18.80;40.40;;;;;;5038010;28;20017;-60
2023/01/28 14:44:22;;;;;;;;;;;18.80;40.40;;;;;;5021905;28;19947;-70
2023/01/28 14:46:52;;;;;;;;;;;18.80;40.50;;;;;;5040309;28;19921;-66
2023/01/28 14:49:21;;;;;;;;;;;18.80;40.50;;;;;;5023813;28;20371;-66
2023/01/28 14:52:15;;;;;;;;;;;18.80;40.50;;;;;;5037292;28;19963;-62
2023/01/28 14:54:44;;;;;;;;;;;18.80;40.50;;;;;;5003739;28;19983;-63